createdAt,value
2023-04-02T00:00:03.814Z,73.84
2023-04-02T00:02:46.323Z,73.72
2023-04-02T00:05:50.173Z,73.39
2023-04-02T00:08:27.274Z,72.83
2023-04-02T00:10:56.896Z,73.40
2023-04-02T00:13:32.935Z,73.86
2023-04-02T00:16:01.109Z,73.05
2023-04-02T00:18:29.546Z,73.64
2023-04-02T00:21:07.532Z,73.85
2023-04-02T00:23:36.984Z,73.35
2023-04-02T00:26:07.243Z,72.76
2023-04-02T00:28:35.996Z,73.13
2023-04-02T00:31:03.485Z,73.20
2023-04-02T00:33:32.112Z,72.78
2023-04-02T00:35:59.621Z,73.20
2023-04-02T00:38:29.937Z,73.26
2023-04-02T00:41:01.621Z,73.03
2023-04-02T00:43:32.491Z,73.77
2023-04-02T00:46:04.283Z,72.37
2023-04-02T00:48:42.535Z,72.53
2023-04-02T00:51:15.875Z,73.47
2023-04-02T00:53:47.058Z,72.88
2023-04-02T00:56:19.544Z,73.88
2023-04-02T00:58:52.378Z,73.41
2023-04-02T01:01:24.225Z,74.00
2023-04-02T01:03:58.217Z,73.79
2023-04-02T01:06:30.637Z,74.33
2023-04-02T01:09:15.212Z,73.90
2023-04-02T01:11:56.732Z,74.57
2023-04-02T01:14:41.142Z,75.06
2023-04-02T01:17:26.524Z,75.28
2023-04-02T01:20:23.315Z,74.45
2023-04-02T01:22:57.912Z,74.73
2023-04-02T01:25:30.025Z,74.00
2023-04-02T01:28:06.025Z,74.18
2023-04-02T01:30:36.560Z,74.29
2023-04-02T01:33:05.535Z,74.15
2023-04-02T01:35:39.248Z,74.28
2023-04-02T01:38:13.892Z,74.58
2023-04-02T01:40:50.150Z,74.20
2023-04-02T01:43:25.904Z,74.67
2023-04-02T01:45:57.185Z,75.28
2023-04-02T01:48:30.061Z,74.61
2023-04-02T01:51:00.384Z,74.38
2023-04-02T01:53:31.149Z,74.09
2023-04-02T01:56:01.606Z,74.38
2023-04-02T01:58:31.845Z,74.49
2023-04-02T02:01:05.999Z,73.70
2023-04-02T02:03:34.551Z,73.79
2023-04-02T02:06:06.450Z,74.09
2023-04-02T02:08:39.173Z,74.67
2023-04-02T02:11:14.445Z,74.74
2023-04-02T02:13:46.877Z,74.74
2023-04-02T02:16:18.122Z,75.40
2023-04-02T02:18:49.816Z,74.91
2023-04-02T02:21:29.780Z,74.73
2023-04-02T02:23:57.554Z,75.70
2023-04-02T02:26:28.403Z,75.90
2023-04-02T02:28:57.325Z,75.42
2023-04-02T02:31:30.989Z,76.20
2023-04-02T02:34:06.290Z,76.14
2023-04-02T02:36:42.429Z,76.57
2023-04-02T02:39:16.833Z,77.46
2023-04-02T02:41:52.769Z,77.70
2023-04-02T02:44:25.038Z,79.08
2023-04-02T02:46:58.785Z,79.43
2023-04-02T02:49:30.626Z,78.48
2023-04-02T02:52:06.616Z,78.68
2023-04-02T02:54:46.291Z,79.58
2023-04-02T02:57:19.079Z,79.88
2023-04-02T02:59:48.742Z,81.00
2023-04-02T03:02:18.346Z,81.01
2023-04-02T03:04:48.045Z,81.27
2023-04-02T03:07:19.229Z,81.32
2023-04-02T03:09:53.453Z,81.96
2023-04-02T03:12:33.031Z,82.86
2023-04-02T03:15:05.832Z,82.43
2023-04-02T03:17:38.902Z,81.95
2023-04-02T03:20:12.240Z,82.68
2023-04-02T03:22:45.778Z,82.63
2023-04-02T03:25:25.136Z,82.60
2023-04-02T03:28:01.848Z,83.42
2023-04-02T03:30:36.389Z,83.09
2023-04-02T03:33:11.682Z,83.28
2023-04-02T03:35:43.560Z,82.65
2023-04-02T03:38:16.653Z,82.53
2023-04-02T03:40:55.576Z,82.78
2023-04-02T03:43:26.124Z,82.88
2023-04-02T03:46:00.200Z,82.88
2023-04-02T03:48:34.465Z,82.73
2023-04-02T03:51:07.419Z,82.78
2023-04-02T03:53:35.011Z,82.96
2023-04-02T03:56:03.780Z,82.72
2023-04-02T03:58:38.516Z,82.37
2023-04-02T04:01:14.864Z,82.64
2023-04-02T04:03:46.955Z,82.37
2023-04-02T04:06:21.317Z,82.11
2023-04-02T04:08:54.509Z,82.04
2023-04-02T04:11:27.443Z,82.51
2023-04-02T04:13:59.899Z,82.43
2023-04-02T04:16:33.497Z,82.21
2023-04-02T04:19:06.638Z,82.58
2023-04-02T04:21:38.361Z,82.41
2023-04-02T04:24:20.226Z,82.33
2023-04-02T04:26:55.082Z,82.23
2023-04-02T04:29:38.195Z,82.64
2023-04-02T04:32:19.604Z,82.57
2023-04-02T04:34:53.737Z,82.34
2023-04-02T04:37:33.556Z,82.43
2023-04-02T04:40:12.046Z,82.06
2023-04-02T04:42:44.449Z,82.16
2023-04-02T04:45:26.662Z,82.04
2023-04-02T04:48:00.018Z,82.32
2023-04-02T04:50:34.433Z,82.56
2023-04-02T04:53:06.696Z,82.56
2023-04-02T04:55:38.306Z,82.71
2023-04-02T04:58:14.554Z,82.64
2023-04-02T05:00:50.656Z,82.45
2023-04-02T05:03:28.108Z,82.79
2023-04-02T05:06:03.605Z,82.43
2023-04-02T05:08:34.508Z,82.38
2023-04-02T05:11:09.230Z,82.35
2023-04-02T05:13:42.520Z,82.63
2023-04-02T05:16:17.708Z,82.79
2023-04-02T05:18:51.089Z,82.93
2023-04-02T05:21:26.374Z,82.34
2023-04-02T05:23:59.957Z,82.16
2023-04-02T05:26:32.171Z,81.99
2023-04-02T05:29:06.374Z,81.94
2023-04-02T05:31:39.226Z,82.76
2023-04-02T05:34:07.631Z,82.79
2023-04-02T05:36:36.736Z,83.00
2023-04-02T05:39:08.705Z,82.60
2023-04-02T05:41:47.446Z,83.11
2023-04-02T05:44:31.356Z,82.86
2023-04-02T05:47:04.840Z,82.59
2023-04-02T05:49:41.577Z,82.85
2023-04-02T05:52:17.391Z,82.69
2023-04-02T05:54:49.491Z,82.98
2023-04-02T05:57:24.900Z,82.41
2023-04-02T05:59:59.994Z,82.84
2023-04-02T06:02:31.895Z,82.77
2023-04-02T06:05:04.856Z,82.64
2023-04-02T06:07:45.131Z,82.44
2023-04-02T06:10:23.473Z,82.59
2023-04-02T06:12:55.450Z,82.35
2023-04-02T06:15:24.234Z,82.17
2023-04-02T06:18:01.406Z,82.25
2023-04-02T06:20:29.486Z,81.15
2023-04-02T06:23:02.507Z,81.54
2023-04-02T06:25:36.527Z,81.93
2023-04-02T06:28:14.314Z,81.44
2023-04-02T06:30:53.280Z,80.79
2023-04-02T06:33:21.626Z,80.76
2023-04-02T06:35:51.190Z,81.50
2023-04-02T06:38:31.337Z,79.67
2023-04-02T06:41:02.811Z,80.18
2023-04-02T06:43:49.030Z,80.34
2023-04-02T06:46:45.505Z,80.67
2023-04-02T06:49:21.252Z,80.79
2023-04-02T06:51:54.608Z,80.26
2023-04-02T06:54:23.639Z,79.58
2023-04-02T06:56:56.719Z,79.72
2023-04-02T06:59:28.688Z,79.90
2023-04-02T07:02:01.036Z,79.67
2023-04-02T07:04:28.949Z,80.09
2023-04-02T07:06:56.571Z,79.39
2023-04-02T07:09:28.639Z,80.09
2023-04-02T07:11:59.142Z,78.79
2023-04-02T07:14:27.271Z,79.54
2023-04-02T07:16:54.984Z,79.45
2023-04-02T07:19:23.083Z,79.23
2023-04-02T07:21:55.019Z,78.83
2023-04-02T07:24:24.348Z,79.49
2023-04-02T07:26:53.147Z,78.68
2023-04-02T07:29:20.873Z,78.91
2023-04-02T07:31:48.463Z,78.81
2023-04-02T07:34:16.036Z,78.27
2023-04-02T07:36:43.672Z,78.21
2023-04-02T07:39:12.169Z,78.04
2023-04-02T07:41:56.800Z,79.07
2023-04-02T07:44:26.277Z,77.65
2023-04-02T07:46:53.937Z,76.69
2023-04-02T07:49:21.950Z,77.04
2023-04-02T07:51:49.501Z,76.42
2023-04-02T07:54:16.969Z,76.52
2023-04-02T07:56:44.558Z,76.07
2023-04-02T07:59:13.432Z,76.29
2023-04-02T08:01:43.134Z,77.12
2023-04-02T08:04:18.318Z,76.83
2023-04-02T08:06:47.350Z,75.49
2023-04-02T08:09:15.494Z,76.68
2023-04-02T08:11:43.524Z,76.19
2023-04-02T08:14:12.899Z,75.49
2023-04-02T08:16:46.076Z,74.85
2023-04-02T08:19:13.974Z,76.48
2023-04-02T08:21:41.519Z,75.91
2023-04-02T08:24:09.040Z,75.04
2023-04-02T08:26:37.226Z,74.93
2023-04-02T08:29:04.747Z,74.17
2023-04-02T08:31:33.506Z,74.17
2023-04-02T08:34:01.653Z,75.57
2023-04-02T08:36:33.626Z,74.47
2023-04-02T08:39:01.866Z,74.51
2023-04-02T08:41:31.121Z,74.01
2023-04-02T08:44:10.706Z,73.88
2023-04-02T08:46:44.975Z,75.31
2023-04-02T08:49:14.671Z,73.50
2023-04-02T08:51:42.462Z,74.20
2023-04-02T08:54:18.632Z,73.57
2023-04-02T08:56:51.499Z,72.86
2023-04-02T08:59:29.771Z,72.24
2023-04-02T09:02:06.554Z,71.75
2023-04-02T09:04:34.594Z,71.13
2023-04-02T09:07:03.059Z,71.88
2023-04-02T09:09:37.178Z,71.85
2023-04-02T09:12:07.233Z,72.45
2023-04-02T09:14:42.925Z,72.03
2023-04-02T09:17:18.082Z,71.42
2023-04-02T09:19:54.429Z,72.49
2023-04-02T09:22:24.141Z,71.73
2023-04-02T09:24:53.017Z,71.87
2023-04-02T09:27:22.341Z,71.60
2023-04-02T09:29:53.296Z,71.99
2023-04-02T09:32:48.719Z,71.82
2023-04-02T09:35:26.150Z,69.86
2023-04-02T09:38:22.963Z,71.06
2023-04-02T09:40:59.066Z,70.40
2023-04-02T09:43:28.387Z,72.01
2023-04-02T09:45:58.883Z,71.69
2023-04-02T09:48:32.694Z,70.21
2023-04-02T09:51:15.393Z,70.77
2023-04-02T09:53:45.845Z,69.77
2023-04-02T09:56:16.895Z,69.26
2023-04-02T09:58:45.846Z,68.87
2023-04-02T10:01:28.885Z,69.76
2023-04-02T10:03:59.625Z,69.70
2023-04-02T10:06:29.356Z,69.15
2023-04-02T10:08:57.309Z,69.02
2023-04-02T10:11:36.435Z,67.37
2023-04-02T10:14:15.711Z,66.45
2023-04-02T10:16:48.331Z,67.99
2023-04-02T10:19:27.707Z,66.90
2023-04-02T10:21:56.618Z,65.18
2023-04-02T10:24:28.217Z,66.41
2023-04-02T10:27:05.150Z,64.80
2023-04-02T10:30:02.252Z,64.02
2023-04-02T10:32:37.230Z,63.83
2023-04-02T10:35:15.715Z,63.79
2023-04-02T10:38:02.356Z,63.53
2023-04-02T10:40:36.580Z,63.11
2023-04-02T10:43:30.817Z,63.99
2023-04-02T10:46:02.375Z,65.26
2023-04-02T10:48:39.311Z,64.17
2023-04-02T10:51:24.942Z,64.87
2023-04-02T10:54:01.242Z,65.95
2023-04-02T10:56:40.799Z,65.67
2023-04-02T10:59:19.572Z,64.30
2023-04-02T11:01:49.722Z,64.28
2023-04-02T11:04:22.669Z,64.37
2023-04-02T11:07:07.219Z,61.61
2023-04-02T11:09:43.825Z,63.00
2023-04-02T11:12:19.787Z,62.89
2023-04-02T11:14:49.387Z,61.11
2023-04-02T11:17:18.424Z,60.93
2023-04-02T11:19:50.362Z,60.79
2023-04-02T11:22:21.558Z,60.69
2023-04-02T11:24:51.288Z,60.10
2023-04-02T11:27:24.493Z,59.03
2023-04-02T11:29:57.499Z,57.41
2023-04-02T11:32:43.314Z,57.77
2023-04-02T11:35:34.662Z,59.48
2023-04-02T11:38:38.364Z,59.51
2023-04-02T11:41:07.850Z,57.43
2023-04-02T11:43:59.383Z,59.01
2023-04-02T11:46:39.055Z,60.00
2023-04-02T11:49:39.663Z,60.51
2023-04-02T11:52:26.862Z,61.19
2023-04-02T11:54:57.458Z,61.12
2023-04-02T11:57:46.832Z,61.34
2023-04-02T12:00:33.738Z,61.73
2023-04-02T12:03:20.417Z,62.45
2023-04-02T12:05:54.632Z,61.87
2023-04-02T12:08:29.645Z,62.79
2023-04-02T12:10:59.510Z,62.79
2023-04-02T12:13:51.663Z,62.27
2023-04-02T12:16:21.238Z,61.64
2023-04-02T12:18:55.009Z,61.17
2023-04-02T12:21:24.871Z,61.32
2023-04-02T12:23:55.105Z,61.48
2023-04-02T12:26:37.865Z,60.52
2023-04-02T12:29:17.186Z,61.85
2023-04-02T12:31:47.668Z,61.25
2023-04-02T12:34:16.856Z,61.53
2023-04-02T12:36:56.009Z,61.38
2023-04-02T12:39:25.212Z,62.39
2023-04-02T12:41:55.840Z,62.32
2023-04-02T12:44:25.688Z,61.23
2023-04-02T12:46:54.381Z,61.01
2023-04-02T12:49:35.339Z,60.42
2023-04-02T12:52:05.040Z,60.16
2023-04-02T12:54:36.673Z,61.34
2023-04-02T12:57:30.820Z,61.95
2023-04-02T13:00:06.147Z,61.40
2023-04-02T13:02:45.006Z,61.02
2023-04-02T13:05:12.552Z,60.20
2023-04-02T13:07:41.957Z,61.15
2023-04-02T13:10:25.508Z,60.64
2023-04-02T13:12:55.447Z,61.13
2023-04-02T13:15:28.247Z,60.67
2023-04-02T13:18:05.512Z,62.75
2023-04-02T13:20:35.072Z,61.58
2023-04-02T13:23:23.983Z,62.78
2023-04-02T13:25:52.065Z,62.55
2023-04-02T13:28:19.849Z,61.85
2023-04-02T13:30:49.092Z,61.41
2023-04-02T13:33:17.310Z,61.06
2023-04-02T13:35:45.413Z,60.84
2023-04-02T13:38:13.040Z,63.77
2023-04-02T13:40:40.579Z,66.68
2023-04-02T13:43:12.123Z,70.98
2023-04-02T13:45:41.873Z,71.74
2023-04-02T13:48:14.585Z,74.07
2023-04-02T13:50:42.627Z,76.82
2023-04-02T13:53:21.954Z,75.92
2023-04-02T13:55:49.861Z,76.42
2023-04-02T13:58:18.925Z,77.17
2023-04-02T14:00:47.239Z,78.14
2023-04-02T14:03:19.770Z,78.75
2023-04-02T14:05:57.064Z,78.75
2023-04-02T14:08:33.172Z,79.77
2023-04-02T14:11:11.195Z,81.10
2023-04-02T14:14:01.009Z,81.39
2023-04-02T14:16:46.414Z,80.68
2023-04-02T14:19:27.715Z,79.72
2023-04-02T14:22:08.627Z,80.83
2023-04-02T14:24:44.952Z,81.20
2023-04-02T14:27:24.370Z,81.05
2023-04-02T14:30:01.140Z,81.26
2023-04-02T14:32:35.899Z,80.45
2023-04-02T14:35:12.521Z,81.48
2023-04-02T14:37:45.746Z,80.47
2023-04-02T14:40:21.858Z,82.00
2023-04-02T14:42:56.078Z,80.69
2023-04-02T14:45:38.053Z,80.93
2023-04-02T14:48:16.154Z,79.92
2023-04-02T14:50:43.929Z,80.17
2023-04-02T14:53:19.588Z,80.15
2023-04-02T14:55:49.713Z,80.30
2023-04-02T14:58:22.139Z,80.21
2023-04-02T15:00:58.398Z,79.89
2023-04-02T15:03:32.928Z,80.65
2023-04-02T15:06:06.131Z,80.74
2023-04-02T15:08:39.152Z,80.92
2023-04-02T15:11:12.128Z,81.34
2023-04-02T15:13:44.228Z,80.48
2023-04-02T15:16:19.132Z,81.06
2023-04-02T15:18:50.512Z,81.47
2023-04-02T15:21:55.869Z,81.76
2023-04-02T15:24:35.574Z,80.24
2023-04-02T15:27:24.958Z,80.98
2023-04-02T15:29:57.853Z,80.97
2023-04-02T15:32:36.107Z,81.54
2023-04-02T15:35:15.910Z,81.12
2023-04-02T15:37:49.747Z,80.99
2023-04-02T15:40:43.498Z,79.99
2023-04-02T15:43:19.803Z,79.62
2023-04-02T15:46:01.091Z,80.31
2023-04-02T15:48:42.360Z,80.16
2023-04-02T15:51:25.888Z,80.21
2023-04-02T15:54:03.499Z,79.53
2023-04-02T15:56:40.310Z,79.62
2023-04-02T15:59:26.925Z,80.24
2023-04-02T16:01:59.452Z,79.55
2023-04-02T16:04:44.823Z,78.93
2023-04-02T16:07:40.196Z,79.71
2023-04-02T16:10:18.023Z,80.25
2023-04-02T16:12:50.750Z,79.64
2023-04-02T16:15:27.091Z,79.95
2023-04-02T16:17:59.258Z,80.02
2023-04-02T16:20:31.869Z,80.08
2023-04-02T16:23:02.558Z,78.83
2023-04-02T16:25:38.976Z,79.84
2023-04-02T16:28:19.203Z,80.25
2023-04-02T16:30:55.750Z,79.97
2023-04-02T16:33:36.445Z,80.65
2023-04-02T16:36:19.798Z,79.22
2023-04-02T16:38:55.598Z,79.65
2023-04-02T16:41:30.084Z,78.35
2023-04-02T16:44:07.696Z,78.30
2023-04-02T16:46:41.056Z,78.82
2023-04-02T16:49:23.436Z,79.03
2023-04-02T16:52:02.373Z,79.02
2023-04-02T16:54:35.530Z,79.60
2023-04-02T16:57:19.079Z,79.59
2023-04-02T16:59:56.654Z,79.17
2023-04-02T17:02:37.682Z,79.17
2023-04-02T17:05:17.385Z,78.08
2023-04-02T17:07:50.590Z,77.71
2023-04-02T17:10:26.870Z,76.89
2023-04-02T17:13:02.243Z,77.33
2023-04-02T17:15:34.700Z,77.36
2023-04-02T17:18:09.799Z,76.39
2023-04-02T17:20:38.271Z,77.23
2023-04-02T17:23:11.878Z,77.22
2023-04-02T17:25:46.603Z,77.02
2023-04-02T17:28:18.375Z,77.23
2023-04-02T17:30:49.274Z,76.94
2023-04-02T17:33:18.629Z,78.06
2023-04-02T17:35:56.009Z,77.83
2023-04-02T17:38:33.135Z,77.83
2023-04-02T17:41:08.590Z,78.35
2023-04-02T17:43:46.122Z,78.22
2023-04-02T17:46:24.846Z,78.35
2023-04-02T17:49:00.322Z,78.35
2023-04-02T17:51:38.842Z,78.40
2023-04-02T17:54:22.037Z,78.09
2023-04-02T17:57:06.538Z,78.51
2023-04-02T17:59:55.382Z,78.36
2023-04-02T18:02:38.945Z,78.59
2023-04-02T18:05:15.895Z,78.42
2023-04-02T18:07:54.648Z,78.84
2023-04-02T18:10:29.654Z,78.75
2023-04-02T18:13:06.864Z,79.06
2023-04-02T18:15:55.406Z,78.70
2023-04-02T18:18:49.487Z,79.46
2023-04-02T18:21:24.933Z,79.32
2023-04-02T18:24:10.217Z,78.83
2023-04-02T18:26:48.452Z,78.79
2023-04-02T18:29:27.877Z,79.01
2023-04-02T18:32:10.742Z,79.29
2023-04-02T18:34:55.498Z,79.36
2023-04-02T18:37:33.079Z,79.81
2023-04-02T18:40:16.064Z,78.98
2023-04-02T18:42:58.891Z,79.26
2023-04-02T18:45:35.875Z,79.63
2023-04-02T18:48:16.030Z,79.37
2023-04-02T18:50:46.754Z,79.01
2023-04-02T18:53:17.069Z,79.31
2023-04-02T18:55:48.682Z,79.39
2023-04-02T18:58:25.358Z,79.34
2023-04-02T19:00:53.921Z,79.62
2023-04-02T19:03:25.151Z,78.83
2023-04-02T19:05:58.647Z,78.73
2023-04-02T19:08:31.382Z,78.51
2023-04-02T19:11:01.710Z,79.12
2023-04-02T19:13:30.678Z,78.11
2023-04-02T19:16:15.829Z,78.51
2023-04-02T19:18:54.042Z,79.57
2023-04-02T19:21:33.583Z,78.30
2023-04-02T19:24:12.991Z,78.97
2023-04-02T19:26:49.335Z,77.87
2023-04-02T19:29:29.190Z,78.73
2023-04-02T19:32:03.858Z,78.28
2023-04-02T19:34:39.750Z,78.67
2023-04-02T19:37:15.514Z,77.89
2023-04-02T19:40:04.992Z,78.11
2023-04-02T19:42:48.176Z,78.27
2023-04-02T19:45:28.557Z,77.50
2023-04-02T19:47:58.606Z,77.86
2023-04-02T19:50:28.683Z,77.52
2023-04-02T19:52:56.261Z,77.02
2023-04-02T19:55:23.719Z,76.69
2023-04-02T19:57:52.797Z,76.62
2023-04-02T20:00:23.819Z,75.92
2023-04-02T20:02:51.590Z,76.47
2023-04-02T20:05:19.157Z,75.71
2023-04-02T20:07:46.627Z,75.43
2023-04-02T20:10:14.185Z,75.16
2023-04-02T20:12:41.818Z,75.55
2023-04-02T20:15:10.954Z,75.46
2023-04-02T20:17:40.459Z,74.89
2023-04-02T20:20:10.550Z,75.18
2023-04-02T20:22:38.014Z,75.14
2023-04-02T20:25:06.309Z,73.68
2023-04-02T20:27:33.708Z,74.41
2023-04-02T20:30:01.208Z,74.49
2023-04-02T20:32:28.769Z,73.29
2023-04-02T20:34:58.042Z,72.84
2023-04-02T20:37:25.650Z,73.27
2023-04-02T20:39:54.557Z,72.97
2023-04-02T20:42:22.354Z,72.66
2023-04-02T20:44:49.790Z,73.02
2023-04-02T20:47:18.084Z,73.60
2023-04-02T20:49:45.828Z,73.25
2023-04-02T20:52:14.585Z,72.61
2023-04-02T20:54:41.929Z,72.65
2023-04-02T20:57:09.490Z,72.91
2023-04-02T20:59:36.901Z,72.43
2023-04-02T21:02:04.280Z,73.14
2023-04-02T21:04:31.863Z,72.92
2023-04-02T21:06:59.379Z,73.72
2023-04-02T21:09:28.262Z,73.80
2023-04-02T21:11:55.639Z,73.40
2023-04-02T21:14:22.954Z,73.22
2023-04-02T21:19:18.064Z,72.55
2023-04-02T21:21:45.543Z,72.38
2023-04-02T21:24:13.280Z,73.55
2023-04-02T21:26:42.158Z,73.12
2023-04-02T21:29:11.394Z,72.84
2023-04-02T21:31:40.771Z,72.84
2023-04-02T21:34:09.771Z,72.69
2023-04-02T21:36:39.314Z,73.22
2023-04-02T21:39:07.128Z,71.60
2023-04-02T21:41:36.860Z,72.28
2023-04-02T21:44:07.161Z,71.38
2023-04-02T21:46:36.739Z,71.33
2023-04-02T21:49:06.001Z,72.29
2023-04-02T21:51:35.660Z,70.74
2023-04-02T21:54:04.086Z,71.37
2023-04-02T21:56:32.897Z,71.35
2023-04-02T21:59:02.093Z,71.01
2023-04-02T22:01:32.767Z,71.39
2023-04-02T22:04:02.019Z,71.26
2023-04-02T22:06:31.583Z,71.37
2023-04-02T22:09:01.281Z,71.04
2023-04-02T22:11:31.653Z,71.30
2023-04-02T22:13:59.677Z,71.53
2023-04-02T22:16:30.243Z,70.61
2023-04-02T22:19:01.811Z,71.11
2023-04-02T22:21:30.667Z,71.23
2023-04-02T22:24:01.353Z,70.90
2023-04-02T22:26:30.245Z,71.31
2023-04-02T22:28:57.968Z,71.22
2023-04-02T22:31:26.793Z,71.02
2023-04-02T22:33:56.543Z,70.67
2023-04-02T22:36:26.506Z,71.82
2023-04-02T22:38:54.478Z,71.00
2023-04-02T22:41:25.573Z,71.55
2023-04-02T22:43:54.433Z,70.97
2023-04-02T22:46:22.600Z,71.03
2023-04-02T22:48:50.665Z,70.83
2023-04-02T22:51:19.958Z,71.46
2023-04-02T22:53:49.149Z,72.25
2023-04-02T22:56:18.799Z,70.89
2023-04-02T22:58:46.448Z,72.05
2023-04-02T23:01:16.525Z,71.20
2023-04-02T23:03:44.328Z,70.94
2023-04-02T23:06:14.401Z,70.82
2023-04-02T23:08:42.093Z,70.22
2023-04-02T23:11:12.388Z,70.64
2023-04-02T23:13:41.841Z,70.52
2023-04-02T23:16:12.542Z,69.96
2023-04-02T23:18:41.517Z,70.98
2023-04-02T23:21:09.851Z,71.11
2023-04-02T23:23:37.977Z,71.36
2023-04-02T23:26:08.105Z,71.32
2023-04-02T23:28:38.199Z,71.64
2023-04-02T23:31:07.884Z,70.98
2023-04-02T23:33:35.783Z,71.69
2023-04-02T23:36:07.262Z,71.35
2023-04-02T23:38:34.828Z,71.60
2023-04-02T23:41:02.314Z,71.05
2023-04-02T23:43:29.931Z,71.23
2023-04-02T23:45:58.935Z,72.25
2023-04-02T23:48:26.412Z,71.66
2023-04-02T23:50:53.886Z,70.60
2023-04-02T23:53:21.338Z,71.34
2023-04-02T23:55:48.889Z,71.71
2023-04-02T23:58:16.340Z,69.83
